sensor_id;sensor_type;location;lat;lon;timestamp;temperature;humidity
74384;DHT22;62824;52.994;-3.936;2023-05-10T00:01:08;12.50;99.90
74384;DHT22;62824;52.994;-3.936;2023-05-10T00:03:34;12.40;99.90
74384;DHT22;62824;52.994;-3.936;2023-05-10T00:05:59;12.30;99.90
74384;DHT22;62824;52.994;-3.936;2023-05-10T00:08:25;12.40;99.90
74384;DHT22;62824;52.994;-3.936;2023-05-10T00:10:52;12.40;99.90
74384;DHT22;62824;52.994;-3.936;2023-05-10T00:13:18;12.40;99.90
74384;DHT22;62824;52.994;-3.936;2023-05-10T00:15:44;12.40;99.90
74384;DHT22;62824;52.994;-3.936;2023-05-10T00:18:10;12.50;99.90
74384;DHT22;62824;52.994;-3.936;2023-05-10T00:20:35;12.30;99.90
74384;DHT22;62824;52.994;-3.936;2023-05-10T00:23:01;12.30;99.90
74384;DHT22;62824;52.994;-3.936;2023-05-10T00:25:27;12.30;99.90
74384;DHT22;62824;52.994;-3.936;2023-05-10T00:27:53;12.20;99.90
74384;DHT22;62824;52.994;-3.936;2023-05-10T00:30:20;12.10;99.90
74384;DHT22;62824;52.994;-3.936;2023-05-10T00:32:46;12.20;99.90
74384;DHT22;62824;52.994;-3.936;2023-05-10T00:35:13;12.30;99.90
74384;DHT22;62824;52.994;-3.936;2023-05-10T00:37:39;12.40;99.90
74384;DHT22;62824;52.994;-3.936;2023-05-10T00:40:06;12.40;99.90
74384;DHT22;62824;52.994;-3.936;2023-05-10T00:42:32;12.30;99.90
74384;DHT22;62824;52.994;-3.936;2023-05-10T00:44:58;12.10;99.90
74384;DHT22;62824;52.994;-3.936;2023-05-10T00:47:24;12.10;99.90
74384;DHT22;62824;52.994;-3.936;2023-05-10T00:49:50;12.10;99.90
74384;DHT22;62824;52.994;-3.936;2023-05-10T00:52:15;12.20;99.90
74384;DHT22;62824;52.994;-3.936;2023-05-10T00:54:42;12.20;99.90
74384;DHT22;62824;52.994;-3.936;2023-05-10T00:57:07;12.30;99.90
74384;DHT22;62824;52.994;-3.936;2023-05-10T00:59:33;12.30;99.90
74384;DHT22;62824;52.994;-3.936;2023-05-10T01:01:59;12.40;99.90
74384;DHT22;62824;52.994;-3.936;2023-05-10T01:04:25;12.60;99.90
74384;DHT22;62824;52.994;-3.936;2023-05-10T01:06:52;12.60;99.90
74384;DHT22;62824;52.994;-3.936;2023-05-10T01:09:20;12.60;99.90
74384;DHT22;62824;52.994;-3.936;2023-05-10T01:11:46;12.60;99.90
74384;DHT22;62824;52.994;-3.936;2023-05-10T01:14:13;12.40;99.90
74384;DHT22;62824;52.994;-3.936;2023-05-10T01:16:40;12.20;99.90
74384;DHT22;62824;52.994;-3.936;2023-05-10T01:19:28;12.20;99.90
74384;DHT22;62824;52.994;-3.936;2023-05-10T01:43:26;12.20;99.90
74384;DHT22;62824;52.994;-3.936;2023-05-10T01:46:07;12.30;99.90
74384;DHT22;62824;52.994;-3.936;2023-05-10T01:48:47;12.30;99.90
74384;DHT22;62824;52.994;-3.936;2023-05-10T01:51:21;12.30;99.90
74384;DHT22;62824;52.994;-3.936;2023-05-10T01:53:48;12.10;99.90
74384;DHT22;62824;52.994;-3.936;2023-05-10T01:56:19;12.00;99.90
74384;DHT22;62824;52.994;-3.936;2023-05-10T01:58:49;12.00;99.90
74384;DHT22;62824;52.994;-3.936;2023-05-10T02:01:17;12.10;99.90
74384;DHT22;62824;52.994;-3.936;2023-05-10T02:03:46;12.20;99.90
74384;DHT22;62824;52.994;-3.936;2023-05-10T02:06:14;12.20;99.90
74384;DHT22;62824;52.994;-3.936;2023-05-10T02:08:41;12.30;99.90
74384;DHT22;62824;52.994;-3.936;2023-05-10T02:11:07;12.30;99.90
74384;DHT22;62824;52.994;-3.936;2023-05-10T02:13:35;12.30;99.90
74384;DHT22;62824;52.994;-3.936;2023-05-10T02:16:03;12.20;99.90
74384;DHT22;62824;52.994;-3.936;2023-05-10T02:18:31;12.30;99.90
74384;DHT22;62824;52.994;-3.936;2023-05-10T02:20:59;12.30;99.90
74384;DHT22;62824;52.994;-3.936;2023-05-10T02:23:26;12.30;99.90
74384;DHT22;62824;52.994;-3.936;2023-05-10T02:25:54;12.20;99.90
74384;DHT22;62824;52.994;-3.936;2023-05-10T02:28:22;12.20;99.90
74384;DHT22;62824;52.994;-3.936;2023-05-10T02:30:47;12.20;99.90
74384;DHT22;62824;52.994;-3.936;2023-05-10T02:33:14;12.20;99.90
74384;DHT22;62824;52.994;-3.936;2023-05-10T02:35:41;11.90;99.90
74384;DHT22;62824;52.994;-3.936;2023-05-10T02:38:07;11.70;99.90
74384;DHT22;62824;52.994;-3.936;2023-05-10T02:40:36;11.60;99.90
74384;DHT22;62824;52.994;-3.936;2023-05-10T02:43:02;11.70;99.90
74384;DHT22;62824;52.994;-3.936;2023-05-10T02:45:31;11.90;99.90
74384;DHT22;62824;52.994;-3.936;2023-05-10T02:47:58;12.00;99.90
74384;DHT22;62824;52.994;-3.936;2023-05-10T02:50:28;12.00;99.90
74384;DHT22;62824;52.994;-3.936;2023-05-10T02:52:59;12.10;99.90
74384;DHT22;62824;52.994;-3.936;2023-05-10T02:55:30;12.10;99.90
74384;DHT22;62824;52.994;-3.936;2023-05-10T02:58:00;12.20;99.90
74384;DHT22;62824;52.994;-3.936;2023-05-10T03:00:26;12.20;99.90
74384;DHT22;62824;52.994;-3.936;2023-05-10T03:02:52;12.20;99.90
74384;DHT22;62824;52.994;-3.936;2023-05-10T03:05:19;12.20;99.90
74384;DHT22;62824;52.994;-3.936;2023-05-10T03:07:45;12.20;99.90
74384;DHT22;62824;52.994;-3.936;2023-05-10T03:10:11;12.10;99.90
74384;DHT22;62824;52.994;-3.936;2023-05-10T03:19:02;12.20;99.90
74384;DHT22;62824;52.994;-3.936;2023-05-10T03:21:31;12.20;99.90
74384;DHT22;62824;52.994;-3.936;2023-05-10T03:24:09;12.20;99.90
74384;DHT22;62824;52.994;-3.936;2023-05-10T03:26:37;12.20;99.90
74384;DHT22;62824;52.994;-3.936;2023-05-10T03:29:05;12.20;99.90
74384;DHT22;62824;52.994;-3.936;2023-05-10T03:31:32;12.20;99.90
74384;DHT22;62824;52.994;-3.936;2023-05-10T03:33:58;12.20;99.90
74384;DHT22;62824;52.994;-3.936;2023-05-10T03:36:23;12.10;99.90
74384;DHT22;62824;52.994;-3.936;2023-05-10T03:38:49;12.00;99.90
74384;DHT22;62824;52.994;-3.936;2023-05-10T03:41:15;12.00;99.90
74384;DHT22;62824;52.994;-3.936;2023-05-10T03:43:41;12.10;99.90
74384;DHT22;62824;52.994;-3.936;2023-05-10T03:46:07;12.10;99.90
74384;DHT22;62824;52.994;-3.936;2023-05-10T03:48:32;12.00;99.90
74384;DHT22;62824;52.994;-3.936;2023-05-10T03:50:58;12.00;99.90
74384;DHT22;62824;52.994;-3.936;2023-05-10T03:53:24;11.90;99.90
74384;DHT22;62824;52.994;-3.936;2023-05-10T03:55:50;11.90;99.90
74384;DHT22;62824;52.994;-3.936;2023-05-10T03:58:16;11.80;99.90
74384;DHT22;62824;52.994;-3.936;2023-05-10T04:00:42;11.80;99.90
74384;DHT22;62824;52.994;-3.936;2023-05-10T04:03:11;11.80;99.90
74384;DHT22;62824;52.994;-3.936;2023-05-10T04:05:37;11.80;99.90
74384;DHT22;62824;52.994;-3.936;2023-05-10T04:08:03;11.80;99.90
74384;DHT22;62824;52.994;-3.936;2023-05-10T04:10:29;11.80;99.90
74384;DHT22;62824;52.994;-3.936;2023-05-10T04:12:55;11.80;99.90
74384;DHT22;62824;52.994;-3.936;2023-05-10T04:15:21;11.90;99.90
74384;DHT22;62824;52.994;-3.936;2023-05-10T04:17:47;11.90;99.90
74384;DHT22;62824;52.994;-3.936;2023-05-10T04:20:13;11.90;99.90
74384;DHT22;62824;52.994;-3.936;2023-05-10T04:22:39;11.80;99.90
74384;DHT22;62824;52.994;-3.936;2023-05-10T04:25:05;11.80;99.90
74384;DHT22;62824;52.994;-3.936;2023-05-10T04:27:31;11.80;99.90
74384;DHT22;62824;52.994;-3.936;2023-05-10T04:29:57;11.80;99.90
74384;DHT22;62824;52.994;-3.936;2023-05-10T04:32:23;11.80;99.90
74384;DHT22;62824;52.994;-3.936;2023-05-10T04:34:49;11.80;99.90
74384;DHT22;62824;52.994;-3.936;2023-05-10T04:37:16;11.90;99.90
74384;DHT22;62824;52.994;-3.936;2023-05-10T04:39:42;11.90;99.90
74384;DHT22;62824;52.994;-3.936;2023-05-10T04:42:08;12.00;99.90
74384;DHT22;62824;52.994;-3.936;2023-05-10T04:44:34;11.90;99.90
74384;DHT22;62824;52.994;-3.936;2023-05-10T04:47:00;11.90;99.90
74384;DHT22;62824;52.994;-3.936;2023-05-10T04:49:28;11.80;99.90
74384;DHT22;62824;52.994;-3.936;2023-05-10T04:51:54;11.90;99.90
74384;DHT22;62824;52.994;-3.936;2023-05-10T04:54:19;11.90;99.90
74384;DHT22;62824;52.994;-3.936;2023-05-10T04:56:45;11.90;99.90
74384;DHT22;62824;52.994;-3.936;2023-05-10T04:59:11;11.90;99.90
74384;DHT22;62824;52.994;-3.936;2023-05-10T05:01:37;11.80;99.90
74384;DHT22;62824;52.994;-3.936;2023-05-10T05:04:03;11.70;99.90
74384;DHT22;62824;52.994;-3.936;2023-05-10T05:06:29;11.80;99.90
74384;DHT22;62824;52.994;-3.936;2023-05-10T05:08:54;11.60;99.90
74384;DHT22;62824;52.994;-3.936;2023-05-10T05:11:20;11.70;99.90
74384;DHT22;62824;52.994;-3.936;2023-05-10T05:13:46;11.60;99.90
74384;DHT22;62824;52.994;-3.936;2023-05-10T05:16:12;11.60;99.90
74384;DHT22;62824;52.994;-3.936;2023-05-10T05:18:38;11.60;99.90
74384;DHT22;62824;52.994;-3.936;2023-05-10T05:21:16;11.50;99.90
74384;DHT22;62824;52.994;-3.936;2023-05-10T05:23:42;11.50;99.90
74384;DHT22;62824;52.994;-3.936;2023-05-10T05:26:08;11.50;99.90
74384;DHT22;62824;52.994;-3.936;2023-05-10T05:28:34;11.50;99.90
74384;DHT22;62824;52.994;-3.936;2023-05-10T05:31:03;11.50;99.90
74384;DHT22;62824;52.994;-3.936;2023-05-10T05:33:29;11.60;99.90
74384;DHT22;62824;52.994;-3.936;2023-05-10T05:35:55;11.60;99.90
74384;DHT22;62824;52.994;-3.936;2023-05-10T05:38:21;11.70;99.90
74384;DHT22;62824;52.994;-3.936;2023-05-10T05:40:46;11.60;99.90
74384;DHT22;62824;52.994;-3.936;2023-05-10T05:43:12;11.60;99.90
74384;DHT22;62824;52.994;-3.936;2023-05-10T05:45:39;11.60;99.90
74384;DHT22;62824;52.994;-3.936;2023-05-10T05:48:04;11.60;99.90
74384;DHT22;62824;52.994;-3.936;2023-05-10T05:50:30;11.60;99.90
74384;DHT22;62824;52.994;-3.936;2023-05-10T05:52:56;11.60;99.90
74384;DHT22;62824;52.994;-3.936;2023-05-10T05:55:22;11.60;99.90
74384;DHT22;62824;52.994;-3.936;2023-05-10T05:57:49;11.60;99.90
74384;DHT22;62824;52.994;-3.936;2023-05-10T06:00:15;11.70;99.90
74384;DHT22;62824;52.994;-3.936;2023-05-10T06:02:41;11.70;99.90
74384;DHT22;62824;52.994;-3.936;2023-05-10T06:05:07;11.70;99.90
74384;DHT22;62824;52.994;-3.936;2023-05-10T06:07:33;11.70;99.90
74384;DHT22;62824;52.994;-3.936;2023-05-10T06:09:59;11.70;99.90
74384;DHT22;62824;52.994;-3.936;2023-05-10T06:12:25;11.70;99.90
74384;DHT22;62824;52.994;-3.936;2023-05-10T06:14:50;11.70;99.90
74384;DHT22;62824;52.994;-3.936;2023-05-10T06:17:16;11.80;99.90
74384;DHT22;62824;52.994;-3.936;2023-05-10T06:19:42;11.80;99.90
74384;DHT22;62824;52.994;-3.936;2023-05-10T06:22:08;11.80;99.90
74384;DHT22;62824;52.994;-3.936;2023-05-10T06:24:33;11.80;99.90
74384;DHT22;62824;52.994;-3.936;2023-05-10T06:26:59;11.80;99.90
74384;DHT22;62824;52.994;-3.936;2023-05-10T06:29:26;11.70;99.90
74384;DHT22;62824;52.994;-3.936;2023-05-10T06:31:51;11.70;99.90
74384;DHT22;62824;52.994;-3.936;2023-05-10T06:34:17;11.80;99.90
74384;DHT22;62824;52.994;-3.936;2023-05-10T06:36:43;11.70;99.90
74384;DHT22;62824;52.994;-3.936;2023-05-10T06:39:08;11.60;99.90
74384;DHT22;62824;52.994;-3.936;2023-05-10T06:41:37;11.70;99.90
74384;DHT22;62824;52.994;-3.936;2023-05-10T06:44:03;11.70;99.90
74384;DHT22;62824;52.994;-3.936;2023-05-10T06:46:29;11.70;99.90
74384;DHT22;62824;52.994;-3.936;2023-05-10T06:48:55;11.60;99.90
74384;DHT22;62824;52.994;-3.936;2023-05-10T06:51:21;11.70;99.90
74384;DHT22;62824;52.994;-3.936;2023-05-10T06:53:46;11.60;99.90
74384;DHT22;62824;52.994;-3.936;2023-05-10T06:56:12;11.60;99.90
74384;DHT22;62824;52.994;-3.936;2023-05-10T06:58:38;11.60;99.90
74384;DHT22;62824;52.994;-3.936;2023-05-10T07:01:07;11.60;99.90
74384;DHT22;62824;52.994;-3.936;2023-05-10T07:03:33;11.70;99.90
74384;DHT22;62824;52.994;-3.936;2023-05-10T07:06:03;11.70;99.90
74384;DHT22;62824;52.994;-3.936;2023-05-10T07:08:32;11.80;99.90
74384;DHT22;62824;52.994;-3.936;2023-05-10T07:11:05;11.80;99.90
74384;DHT22;62824;52.994;-3.936;2023-05-10T07:13:33;11.80;99.90
74384;DHT22;62824;52.994;-3.936;2023-05-10T07:15:59;11.80;99.90
74384;DHT22;62824;52.994;-3.936;2023-05-10T07:18:26;11.80;99.90
74384;DHT22;62824;52.994;-3.936;2023-05-10T07:20:52;11.80;99.90
74384;DHT22;62824;52.994;-3.936;2023-05-10T07:23:18;11.90;99.90
74384;DHT22;62824;52.994;-3.936;2023-05-10T07:25:46;11.90;99.90
74384;DHT22;62824;52.994;-3.936;2023-05-10T07:28:12;11.90;99.90
74384;DHT22;62824;52.994;-3.936;2023-05-10T07:30:38;12.00;99.90
74384;DHT22;62824;52.994;-3.936;2023-05-10T07:33:04;12.00;99.90
74384;DHT22;62824;52.994;-3.936;2023-05-10T07:35:30;12.00;99.90
74384;DHT22;62824;52.994;-3.936;2023-05-10T07:37:56;12.00;99.90
74384;DHT22;62824;52.994;-3.936;2023-05-10T07:40:22;11.90;99.90
74384;DHT22;62824;52.994;-3.936;2023-05-10T07:42:47;12.00;99.90
74384;DHT22;62824;52.994;-3.936;2023-05-10T07:45:13;11.90;99.90
74384;DHT22;62824;52.994;-3.936;2023-05-10T07:47:39;12.00;99.90
74384;DHT22;62824;52.994;-3.936;2023-05-10T07:50:05;12.00;99.90
74384;DHT22;62824;52.994;-3.936;2023-05-10T07:52:32;12.00;99.90
74384;DHT22;62824;52.994;-3.936;2023-05-10T07:54:58;12.00;99.90
74384;DHT22;62824;52.994;-3.936;2023-05-10T07:57:24;12.00;99.90
74384;DHT22;62824;52.994;-3.936;2023-05-10T07:59:49;12.00;99.90
74384;DHT22;62824;52.994;-3.936;2023-05-10T08:02:15;12.00;99.90
74384;DHT22;62824;52.994;-3.936;2023-05-10T08:04:41;12.00;99.90
74384;DHT22;62824;52.994;-3.936;2023-05-10T08:07:06;12.00;99.90
74384;DHT22;62824;52.994;-3.936;2023-05-10T08:09:33;12.10;99.90
74384;DHT22;62824;52.994;-3.936;2023-05-10T08:11:58;12.00;99.90
74384;DHT22;62824;52.994;-3.936;2023-05-10T08:14:26;12.00;99.90
74384;DHT22;62824;52.994;-3.936;2023-05-10T08:16:52;12.00;99.90
74384;DHT22;62824;52.994;-3.936;2023-05-10T08:19:18;12.00;99.90
74384;DHT22;62824;52.994;-3.936;2023-05-10T08:21:46;12.00;99.90
74384;DHT22;62824;52.994;-3.936;2023-05-10T08:24:12;12.10;99.90
74384;DHT22;62824;52.994;-3.936;2023-05-10T08:26:38;12.10;99.90
74384;DHT22;62824;52.994;-3.936;2023-05-10T08:29:04;12.10;99.90
74384;DHT22;62824;52.994;-3.936;2023-05-10T08:31:30;12.10;99.90
74384;DHT22;62824;52.994;-3.936;2023-05-10T08:33:56;12.10;99.90
74384;DHT22;62824;52.994;-3.936;2023-05-10T08:36:22;12.00;99.90
74384;DHT22;62824;52.994;-3.936;2023-05-10T08:38:53;12.10;99.90
74384;DHT22;62824;52.994;-3.936;2023-05-10T08:41:23;12.20;99.90
74384;DHT22;62824;52.994;-3.936;2023-05-10T08:43:52;12.10;99.90
74384;DHT22;62824;52.994;-3.936;2023-05-10T08:46:19;12.10;99.90
74384;DHT22;62824;52.994;-3.936;2023-05-10T08:48:47;12.20;99.90
74384;DHT22;62824;52.994;-3.936;2023-05-10T08:51:19;12.20;99.90
74384;DHT22;62824;52.994;-3.936;2023-05-10T08:53:47;12.20;99.90
74384;DHT22;62824;52.994;-3.936;2023-05-10T08:56:13;12.20;99.90
74384;DHT22;62824;52.994;-3.936;2023-05-10T08:58:41;12.20;99.90
74384;DHT22;62824;52.994;-3.936;2023-05-10T09:01:08;12.20;99.90
74384;DHT22;62824;52.994;-3.936;2023-05-10T09:03:41;12.30;99.90
74384;DHT22;62824;52.994;-3.936;2023-05-10T09:06:07;12.20;99.90
74384;DHT22;62824;52.994;-3.936;2023-05-10T09:08:33;12.20;99.90
74384;DHT22;62824;52.994;-3.936;2023-05-10T09:11:00;12.10;99.90
74384;DHT22;62824;52.994;-3.936;2023-05-10T09:13:27;12.10;99.90
74384;DHT22;62824;52.994;-3.936;2023-05-10T09:15:53;12.20;99.90
74384;DHT22;62824;52.994;-3.936;2023-05-10T09:18:19;12.20;99.90
74384;DHT22;62824;52.994;-3.936;2023-05-10T09:20:45;12.10;99.90
74384;DHT22;62824;52.994;-3.936;2023-05-10T09:23:11;12.20;99.90
74384;DHT22;62824;52.994;-3.936;2023-05-10T09:25:38;12.20;99.90
74384;DHT22;62824;52.994;-3.936;2023-05-10T09:28:06;12.30;99.90
74384;DHT22;62824;52.994;-3.936;2023-05-10T09:30:34;12.30;99.90
74384;DHT22;62824;52.994;-3.936;2023-05-10T09:33:01;12.30;99.90
74384;DHT22;62824;52.994;-3.936;2023-05-10T09:35:28;12.30;99.90
74384;DHT22;62824;52.994;-3.936;2023-05-10T09:37:56;12.30;99.90
74384;DHT22;62824;52.994;-3.936;2023-05-10T09:40:24;12.20;99.90
74384;DHT22;62824;52.994;-3.936;2023-05-10T09:45:28;12.40;99.90
74384;DHT22;62824;52.994;-3.936;2023-05-10T09:47:56;12.40;99.90
74384;DHT22;62824;52.994;-3.936;2023-05-10T09:50:22;12.40;99.90
74384;DHT22;62824;52.994;-3.936;2023-05-10T09:52:56;12.30;99.90
74384;DHT22;62824;52.994;-3.936;2023-05-10T09:55:26;12.40;99.90
74384;DHT22;62824;52.994;-3.936;2023-05-10T09:58:00;12.30;99.90
74384;DHT22;62824;52.994;-3.936;2023-05-10T10:00:27;12.30;99.90
74384;DHT22;62824;52.994;-3.936;2023-05-10T10:02:57;12.30;99.90
74384;DHT22;62824;52.994;-3.936;2023-05-10T10:05:30;12.40;99.90
74384;DHT22;62824;52.994;-3.936;2023-05-10T10:07:58;12.40;99.90
74384;DHT22;62824;52.994;-3.936;2023-05-10T10:10:27;12.40;99.90
74384;DHT22;62824;52.994;-3.936;2023-05-10T10:12:54;12.50;99.90
74384;DHT22;62824;52.994;-3.936;2023-05-10T10:15:21;12.60;99.90
74384;DHT22;62824;52.994;-3.936;2023-05-10T10:17:49;12.70;99.90
74384;DHT22;62824;52.994;-3.936;2023-05-10T10:20:15;12.70;99.90
74384;DHT22;62824;52.994;-3.936;2023-05-10T10:22:41;12.80;99.90
74384;DHT22;62824;52.994;-3.936;2023-05-10T10:25:10;13.00;99.90
74384;DHT22;62824;52.994;-3.936;2023-05-10T10:28:05;13.20;99.90
74384;DHT22;62824;52.994;-3.936;2023-05-10T10:30:46;13.30;99.90
74384;DHT22;62824;52.994;-3.936;2023-05-10T10:36:09;13.10;99.90
74384;DHT22;62824;52.994;-3.936;2023-05-10T10:41:34;13.10;99.90
74384;DHT22;62824;52.994;-3.936;2023-05-10T10:52:25;13.00;99.90
74384;DHT22;62824;52.994;-3.936;2023-05-10T10:57:47;12.90;99.90
74384;DHT22;62824;52.994;-3.936;2023-05-10T11:00:33;12.90;99.90
74384;DHT22;62824;52.994;-3.936;2023-05-10T11:03:09;12.80;99.90
74384;DHT22;62824;52.994;-3.936;2023-05-10T11:05:49;12.90;99.90
74384;DHT22;62824;52.994;-3.936;2023-05-10T11:08:19;13.00;99.90
74384;DHT22;62824;52.994;-3.936;2023-05-10T11:11:06;13.00;99.90
74384;DHT22;62824;52.994;-3.936;2023-05-10T11:13:43;12.90;99.90
74384;DHT22;62824;52.994;-3.936;2023-05-10T11:19:08;12.80;99.90
74384;DHT22;62824;52.994;-3.936;2023-05-10T11:21:48;12.80;99.90
74384;DHT22;62824;52.994;-3.936;2023-05-10T11:24:17;12.70;99.90
74384;DHT22;62824;52.994;-3.936;2023-05-10T11:26:43;12.70;99.90
74384;DHT22;62824;52.994;-3.936;2023-05-10T11:29:09;12.60;99.90
74384;DHT22;62824;52.994;-3.936;2023-05-10T11:31:42;12.60;99.90
74384;DHT22;62824;52.994;-3.936;2023-05-10T11:34:09;12.60;99.90
74384;DHT22;62824;52.994;-3.936;2023-05-10T11:36:35;12.70;99.90
74384;DHT22;62824;52.994;-3.936;2023-05-10T11:39:03;12.70;99.90
74384;DHT22;62824;52.994;-3.936;2023-05-10T11:41:30;12.70;99.90
74384;DHT22;62824;52.994;-3.936;2023-05-10T11:43:57;12.70;99.90
74384;DHT22;62824;52.994;-3.936;2023-05-10T11:46:25;12.70;99.90
74384;DHT22;62824;52.994;-3.936;2023-05-10T11:48:55;12.60;99.90
74384;DHT22;62824;52.994;-3.936;2023-05-10T11:51:23;12.70;99.90
74384;DHT22;62824;52.994;-3.936;2023-05-10T11:53:52;12.60;99.90
74384;DHT22;62824;52.994;-3.936;2023-05-10T11:56:18;12.60;99.90
74384;DHT22;62824;52.994;-3.936;2023-05-10T11:58:44;12.70;99.90
74384;DHT22;62824;52.994;-3.936;2023-05-10T12:01:10;12.70;99.90
74384;DHT22;62824;52.994;-3.936;2023-05-10T12:03:37;12.70;99.90
74384;DHT22;62824;52.994;-3.936;2023-05-10T12:06:04;12.60;99.90
74384;DHT22;62824;52.994;-3.936;2023-05-10T12:08:30;12.60;99.90
74384;DHT22;62824;52.994;-3.936;2023-05-10T12:11:07;12.50;99.90
74384;DHT22;62824;52.994;-3.936;2023-05-10T12:13:41;12.50;99.90
74384;DHT22;62824;52.994;-3.936;2023-05-10T12:16:19;12.50;99.90
74384;DHT22;62824;52.994;-3.936;2023-05-10T12:18:49;12.50;99.90
74384;DHT22;62824;52.994;-3.936;2023-05-10T12:21:16;12.50;99.90
74384;DHT22;62824;52.994;-3.936;2023-05-10T12:23:43;12.50;99.90
74384;DHT22;62824;52.994;-3.936;2023-05-10T12:26:10;12.60;99.90
74384;DHT22;62824;52.994;-3.936;2023-05-10T12:28:37;12.60;99.90
74384;DHT22;62824;52.994;-3.936;2023-05-10T12:31:04;12.60;99.90
74384;DHT22;62824;52.994;-3.936;2023-05-10T12:33:42;12.70;99.90
74384;DHT22;62824;52.994;-3.936;2023-05-10T12:36:09;12.70;99.90
74384;DHT22;62824;52.994;-3.936;2023-05-10T12:38:40;12.80;99.90
74384;DHT22;62824;52.994;-3.936;2023-05-10T12:41:12;12.80;99.90
74384;DHT22;62824;52.994;-3.936;2023-05-10T12:43:39;12.90;99.90
74384;DHT22;62824;52.994;-3.936;2023-05-10T12:46:13;12.80;99.90
74384;DHT22;62824;52.994;-3.936;2023-05-10T12:48:41;12.70;99.90
74384;DHT22;62824;52.994;-3.936;2023-05-10T12:51:07;12.70;99.90
74384;DHT22;62824;52.994;-3.936;2023-05-10T12:53:38;12.60;99.90
74384;DHT22;62824;52.994;-3.936;2023-05-10T12:56:04;12.60;99.90
74384;DHT22;62824;52.994;-3.936;2023-05-10T12:58:30;12.60;99.90
74384;DHT22;62824;52.994;-3.936;2023-05-10T13:00:57;12.60;99.90
74384;DHT22;62824;52.994;-3.936;2023-05-10T13:03:23;12.60;99.90
74384;DHT22;62824;52.994;-3.936;2023-05-10T13:05:49;12.70;99.90
74384;DHT22;62824;52.994;-3.936;2023-05-10T13:08:15;12.80;99.90
74384;DHT22;62824;52.994;-3.936;2023-05-10T13:10:41;12.80;99.90
74384;DHT22;62824;52.994;-3.936;2023-05-10T13:13:06;12.80;99.90
74384;DHT22;62824;52.994;-3.936;2023-05-10T13:15:33;12.70;99.90
74384;DHT22;62824;52.994;-3.936;2023-05-10T13:18:00;12.50;99.90
74384;DHT22;62824;52.994;-3.936;2023-05-10T13:20:26;12.50;99.90
74384;DHT22;62824;52.994;-3.936;2023-05-10T13:22:52;12.50;99.90
74384;DHT22;62824;52.994;-3.936;2023-05-10T13:25:18;12.40;99.90
74384;DHT22;62824;52.994;-3.936;2023-05-10T13:27:45;12.40;99.90
74384;DHT22;62824;52.994;-3.936;2023-05-10T13:30:11;12.30;99.90
74384;DHT22;62824;52.994;-3.936;2023-05-10T13:32:38;12.40;99.90
74384;DHT22;62824;52.994;-3.936;2023-05-10T13:35:04;12.30;99.90
74384;DHT22;62824;52.994;-3.936;2023-05-10T13:37:31;12.30;99.90
74384;DHT22;62824;52.994;-3.936;2023-05-10T13:39:57;12.40;99.90
74384;DHT22;62824;52.994;-3.936;2023-05-10T13:42:23;12.30;99.90
74384;DHT22;62824;52.994;-3.936;2023-05-10T13:44:50;12.30;99.90
74384;DHT22;62824;52.994;-3.936;2023-05-10T13:47:16;12.30;99.90
74384;DHT22;62824;52.994;-3.936;2023-05-10T13:49:41;12.30;99.90
74384;DHT22;62824;52.994;-3.936;2023-05-10T13:52:08;12.40;99.90
74384;DHT22;62824;52.994;-3.936;2023-05-10T13:54:36;12.40;99.90
74384;DHT22;62824;52.994;-3.936;2023-05-10T13:57:02;12.50;99.90
74384;DHT22;62824;52.994;-3.936;2023-05-10T13:59:28;12.50;99.90
74384;DHT22;62824;52.994;-3.936;2023-05-10T14:01:57;12.40;99.90
74384;DHT22;62824;52.994;-3.936;2023-05-10T14:04:23;12.30;99.90
74384;DHT22;62824;52.994;-3.936;2023-05-10T14:06:48;12.40;99.90
74384;DHT22;62824;52.994;-3.936;2023-05-10T14:09:14;12.30;99.90
74384;DHT22;62824;52.994;-3.936;2023-05-10T14:11:40;12.30;99.90
74384;DHT22;62824;52.994;-3.936;2023-05-10T14:14:09;12.30;99.90
74384;DHT22;62824;52.994;-3.936;2023-05-10T14:16:35;12.30;99.90
74384;DHT22;62824;52.994;-3.936;2023-05-10T14:19:01;12.30;99.90
74384;DHT22;62824;52.994;-3.936;2023-05-10T14:21:27;12.30;99.90
74384;DHT22;62824;52.994;-3.936;2023-05-10T14:23:55;12.40;99.90
74384;DHT22;62824;52.994;-3.936;2023-05-10T14:26:21;12.40;99.90
74384;DHT22;62824;52.994;-3.936;2023-05-10T14:28:47;12.60;99.90
74384;DHT22;62824;52.994;-3.936;2023-05-10T14:31:13;12.60;99.90
74384;DHT22;62824;52.994;-3.936;2023-05-10T14:33:40;12.70;99.90
74384;DHT22;62824;52.994;-3.936;2023-05-10T14:36:06;12.70;99.90
74384;DHT22;62824;52.994;-3.936;2023-05-10T14:38:32;12.60;99.90
74384;DHT22;62824;52.994;-3.936;2023-05-10T14:40:58;12.60;99.90
74384;DHT22;62824;52.994;-3.936;2023-05-10T14:43:24;12.60;99.90
74384;DHT22;62824;52.994;-3.936;2023-05-10T14:45:50;12.60;99.90
74384;DHT22;62824;52.994;-3.936;2023-05-10T14:48:16;12.50;99.90
74384;DHT22;62824;52.994;-3.936;2023-05-10T14:50:43;12.40;99.90
74384;DHT22;62824;52.994;-3.936;2023-05-10T14:53:09;12.40;99.90
74384;DHT22;62824;52.994;-3.936;2023-05-10T14:55:35;12.30;99.90
74384;DHT22;62824;52.994;-3.936;2023-05-10T14:58:07;12.30;99.90
74384;DHT22;62824;52.994;-3.936;2023-05-10T15:00:33;12.20;99.90
74384;DHT22;62824;52.994;-3.936;2023-05-10T15:02:59;12.20;99.90
74384;DHT22;62824;52.994;-3.936;2023-05-10T15:05:25;12.20;99.90
74384;DHT22;62824;52.994;-3.936;2023-05-10T15:07:51;12.30;99.90
74384;DHT22;62824;52.994;-3.936;2023-05-10T15:10:18;12.30;99.90
74384;DHT22;62824;52.994;-3.936;2023-05-10T15:12:43;12.30;99.90
74384;DHT22;62824;52.994;-3.936;2023-05-10T15:15:09;12.20;99.90
74384;DHT22;62824;52.994;-3.936;2023-05-10T15:17:35;12.20;99.90
74384;DHT22;62824;52.994;-3.936;2023-05-10T15:20:01;12.20;99.90
74384;DHT22;62824;52.994;-3.936;2023-05-10T15:22:31;12.30;99.90
74384;DHT22;62824;52.994;-3.936;2023-05-10T15:24:59;12.30;99.90
74384;DHT22;62824;52.994;-3.936;2023-05-10T15:27:25;12.30;99.90
74384;DHT22;62824;52.994;-3.936;2023-05-10T15:29:52;12.30;99.90
74384;DHT22;62824;52.994;-3.936;2023-05-10T15:32:18;12.30;99.90
74384;DHT22;62824;52.994;-3.936;2023-05-10T15:34:43;12.30;99.90
74384;DHT22;62824;52.994;-3.936;2023-05-10T15:37:09;12.30;99.90
74384;DHT22;62824;52.994;-3.936;2023-05-10T15:39:35;12.20;99.90
74384;DHT22;62824;52.994;-3.936;2023-05-10T15:42:01;12.30;99.90
74384;DHT22;62824;52.994;-3.936;2023-05-10T15:44:28;12.50;99.90
74384;DHT22;62824;52.994;-3.936;2023-05-10T15:46:54;12.60;99.90
74384;DHT22;62824;52.994;-3.936;2023-05-10T15:49:20;12.60;99.90
74384;DHT22;62824;52.994;-3.936;2023-05-10T15:51:45;12.60;99.90
74384;DHT22;62824;52.994;-3.936;2023-05-10T15:54:11;12.60;99.90
74384;DHT22;62824;52.994;-3.936;2023-05-10T15:56:37;12.50;99.90
74384;DHT22;62824;52.994;-3.936;2023-05-10T15:59:04;12.50;99.90
74384;DHT22;62824;52.994;-3.936;2023-05-10T16:01:30;12.40;99.90
74384;DHT22;62824;52.994;-3.936;2023-05-10T16:03:57;12.30;99.90
74384;DHT22;62824;52.994;-3.936;2023-05-10T16:06:22;12.30;99.90